Главная страница
METAR-TAF:

METAR-TAF

Аэропорты :

Latrobe, Пенсильвания, США

широта: 40-17N, долгота: 079-24W, высота над уровнем моря: 361 м

Текущие метеонаблюдения

Эта сводка был подготовлена 30 минут назад, в 10:47 UTC
Штиль
Температура 14°C
Влажность 94%
Давление 1017 hPa
Видимость: 16.1 км
ясное небо

METAR: KLBE 241047Z 00000KT 10SM SKC 14/13 A3003

Время: 07:17 (11:17 UTC)

Прогноз

Эта сводка был подготовлена 5 часа и 41 минут назад, в 05:36 UTC
Прогноз действительный с 24-го 06 UTC до 25-го 06 UTC
Ветер 7 Узел от западный-юго-западный
Видимость: 10 км
Рассеянная облачность на высоте 25000 фута
С 24-го 2300 UTC
Ветер Узел от северный
Видимость: 10 км
Отдельные облака на высоте 25000 фута

TAF: KLBE 240536Z 2406/2506 25007KT P6SM BKN250 FM242300 00000KT P6SM SCT250

Метеонаблюдения и прогнозы для более 4000 аэропортов (сводки METAR и TAF).

Имеющиеся станции представлены на карте желтыми и красными точками.

Чтобы увидеть название станции, наведите на нее мышь.

Затем щелкните, чтобы увидеть метеонаблюдения и метеопрогнозы.

Управление картой: чтобы увеличить масштаб, щелкните зеленые кнопки с черным крестиком; чтобы уменьшить масштаб, щелкните зеленую кнопку с тире; для просмотра соседних карт щелкайте зеленые стрелки.


METAR-TAF: